Time;durP1;ratioP1;P1;durP2;ratioP2;P2;SDS_P1;SDS_P2;PMS_P1;PMS_P2;Temp;Humidity;BMP_temperature;BMP_pressure;BME280_temperature;BME280_humidity;BME280_pressure;Samples;Min_cycle;Max_cycle;Signal;HPM_P1;HPM_P2
2022/05/13 00:01:31;;;;;;;15.82;7.93;;;;;;;;;;5097193;28;20069;-75
2022/05/13 00:03:57;;;;;;;16.17;7.47;;;;;;;;;;5099485;28;20085;-75
2022/05/13 00:06:24;;;;;;;11.90;7.75;;;;;;;;;;5101537;28;20016;-75
2022/05/13 00:08:50;;;;;;;12.52;7.20;;;;;;;;;;5097435;28;20023;-75
2022/05/13 00:11:16;;;;;;;10.10;6.72;;;;;;;;;;5094891;28;20036;-74
2022/05/13 00:13:42;;;;;;;14.02;7.22;;;;;;;;;;5092894;28;20756;-75
2022/05/13 00:16:08;;;;;;;10.15;6.90;;;;;;;;;;5095439;28;20023;-75
2022/05/13 00:18:35;;;;;;;11.23;8.13;;;;;;;;;;5100537;27;20046;-75
2022/05/13 00:21:01;;;;;;;10.50;7.35;;;;;;;;;;5098036;28;20028;-75
2022/05/13 00:23:27;;;;;;;11.10;7.35;;;;;;;;;;5096949;27;20088;-75
2022/05/13 00:25:54;;;;;;;9.07;6.85;;;;;;;;;;5092008;28;20031;-75
2022/05/13 00:28:20;;;;;;;10.10;6.75;;;;;;;;;;5089643;28;20032;-75
2022/05/13 00:30:49;;;;;;;9.20;6.03;;;;;;;;;;5088998;28;20112;-75
2022/05/13 00:33:17;;;;;;;11.15;5.90;;;;;;;;;;5088724;28;20040;-75
2022/05/13 00:35:43;;;;;;;6.97;5.88;;;;;;;;;;5094748;28;20031;-75
2022/05/13 00:38:09;;;;;;;10.60;6.30;;;;;;;;;;5097579;28;20511;-75
2022/05/13 00:40:35;;;;;;;9.27;6.82;;;;;;;;;;5094086;28;20126;-75
2022/05/13 00:43:06;;;;;;;12.10;7.47;;;;;;;;;;5087060;28;20478;-75
2022/05/13 00:45:32;;;;;;;11.77;8.23;;;;;;;;;;5086789;28;20032;-75
2022/05/13 00:47:59;;;;;;;13.70;7.95;;;;;;;;;;5089354;28;20050;-75
2022/05/13 00:50:25;;;;;;;13.18;8.45;;;;;;;;;;5094720;28;20521;-75
2022/05/13 00:52:53;;;;;;;14.20;7.55;;;;;;;;;;5102156;28;20039;-74
2022/05/13 00:55:29;;;;;;;14.20;8.38;;;;;;;;;;5101950;27;20417;-75
2022/05/13 00:57:56;;;;;;;11.32;7.05;;;;;;;;;;5095914;28;20508;-74
2022/05/13 01:00:22;;;;;;;11.93;7.32;;;;;;;;;;5098788;28;20098;-74
2022/05/13 01:02:48;;;;;;;10.93;6.60;;;;;;;;;;5096091;28;20032;-75
2022/05/13 01:05:15;;;;;;;8.23;6.53;;;;;;;;;;5099722;28;20035;-74
2022/05/13 01:07:42;;;;;;;11.38;6.28;;;;;;;;;;5098573;28;20020;-75
2022/05/13 01:10:12;;;;;;;9.30;5.60;;;;;;;;;;5100010;28;20084;-75
2022/05/13 01:12:41;;;;;;;9.75;6.28;;;;;;;;;;5102485;28;20051;-74
2022/05/13 01:15:12;;;;;;;12.20;6.68;;;;;;;;;;5099597;28;20089;-75
2022/05/13 01:20:27;;;;;;;10.05;5.70;;;;;;;;;;5101106;27;20549;-75
2022/05/13 01:22:58;;;;;;;9.32;5.90;;;;;;;;;;5093051;28;20073;-74
2022/05/13 01:25:25;;;;;;;8.32;5.40;;;;;;;;;;5089693;28;20501;-75
2022/05/13 01:27:52;;;;;;;9.15;5.68;;;;;;;;;;5089803;28;20047;-76
2022/05/13 01:30:20;;;;;;;10.60;5.63;;;;;;;;;;5087966;28;20058;-75
2022/05/13 01:32:46;;;;;;;11.40;5.38;;;;;;;;;;5089924;28;20039;-75
2022/05/13 01:35:13;;;;;;;8.65;5.20;;;;;;;;;;5094528;28;20032;-75
2022/05/13 01:37:39;;;;;;;7.40;5.05;;;;;;;;;;5094613;28;20028;-75
2022/05/13 01:40:06;;;;;;;9.20;4.72;;;;;;;;;;5091216;28;20020;-75
2022/05/13 01:42:33;;;;;;;9.25;4.78;;;;;;;;;;5092482;28;20015;-75
2022/05/13 01:44:59;;;;;;;8.38;5.10;;;;;;;;;;5088823;28;20476;-75
2022/05/13 01:47:27;;;;;;;6.88;4.57;;;;;;;;;;5089148;28;20086;-75
2022/05/13 01:49:54;;;;;;;11.02;5.00;;;;;;;;;;5085570;28;20119;-75
2022/05/13 01:52:20;;;;;;;7.25;5.05;;;;;;;;;;5105568;27;20572;-75
2022/05/13 01:54:46;;;;;;;7.57;4.85;;;;;;;;;;5106831;27;20588;-75
2022/05/13 01:57:12;;;;;;;8.45;5.03;;;;;;;;;;5103725;28;20035;-74
2022/05/13 01:59:39;;;;;;;9.15;4.47;;;;;;;;;;5101549;28;20020;-75
2022/05/13 02:02:05;;;;;;;9.52;4.53;;;;;;;;;;5102338;28;20031;-75
2022/05/13 02:04:31;;;;;;;10.07;5.20;;;;;;;;;;5090595;28;20036;-75
2022/05/13 02:06:57;;;;;;;10.35;4.72;;;;;;;;;;5086471;28;20027;-75
2022/05/13 02:09:24;;;;;;;9.73;5.32;;;;;;;;;;5081098;28;20032;-75
2022/05/13 02:11:50;;;;;;;6.68;4.75;;;;;;;;;;5096690;28;20038;-75
2022/05/13 02:14:17;;;;;;;13.02;5.50;;;;;;;;;;5082843;28;20147;-74
2022/05/13 02:16:44;;;;;;;7.38;4.57;;;;;;;;;;5081069;28;20032;-75
2022/05/13 02:19:10;;;;;;;8.20;4.75;;;;;;;;;;5082347;28;20040;-75
2022/05/13 02:21:36;;;;;;;7.10;4.88;;;;;;;;;;5094805;28;20020;-75
2022/05/13 02:24:04;;;;;;;7.32;4.70;;;;;;;;;;5093488;28;20059;-75
2022/05/13 02:26:31;;;;;;;7.88;4.57;;;;;;;;;;5094640;28;20028;-74
2022/05/13 02:29:01;;;;;;;8.27;4.82;;;;;;;;;;5095604;28;20027;-75
2022/05/13 02:31:28;;;;;;;7.57;5.18;;;;;;;;;;5090198;28;20512;-75
2022/05/13 02:33:55;;;;;;;11.95;4.63;;;;;;;;;;5096715;28;20088;-74
2022/05/13 02:36:21;;;;;;;9.70;4.80;;;;;;;;;;5089027;28;20019;-75
2022/05/13 02:38:47;;;;;;;10.10;4.68;;;;;;;;;;5096532;28;20476;-75
2022/05/13 02:41:13;;;;;;;10.70;4.80;;;;;;;;;;5086573;28;20872;-75
2022/05/13 02:43:46;;;;;;;6.63;4.20;;;;;;;;;;5094411;28;20080;-74
2022/05/13 02:46:13;;;;;;;7.28;4.35;;;;;;;;;;5095914;28;20055;-74
2022/05/13 02:48:39;;;;;;;7.55;4.05;;;;;;;;;;5081362;28;20024;-75
2022/05/13 02:51:05;;;;;;;9.50;4.65;;;;;;;;;;5082224;28;20032;-75
2022/05/13 02:53:31;;;;;;;8.07;4.10;;;;;;;;;;5081024;28;20036;-75
2022/05/13 02:55:57;;;;;;;6.85;4.03;;;;;;;;;;5088919;28;20019;-75
2022/05/13 02:58:24;;;;;;;7.97;4.63;;;;;;;;;;5086490;28;20035;-75
2022/05/13 03:00:50;;;;;;;7.63;4.38;;;;;;;;;;5085869;28;20024;-75
2022/05/13 03:03:16;;;;;;;9.55;4.72;;;;;;;;;;5114944;27;20030;-75
2022/05/13 03:05:42;;;;;;;6.22;4.68;;;;;;;;;;5124249;27;20076;-75
2022/05/13 03:08:08;;;;;;;9.60;4.38;;;;;;;;;;5092627;28;20375;-75
2022/05/13 03:10:36;;;;;;;6.40;4.22;;;;;;;;;;5086086;28;20128;-74
2022/05/13 03:13:05;;;;;;;7.40;4.10;;;;;;;;;;5086224;28;20075;-74
2022/05/13 03:15:31;;;;;;;7.30;4.22;;;;;;;;;;5084945;28;20032;-75
2022/05/13 03:17:58;;;;;;;12.15;4.13;;;;;;;;;;5086067;28;20028;-75
2022/05/13 03:20:24;;;;;;;5.97;4.18;;;;;;;;;;5082862;28;20044;-75
2022/05/13 03:22:51;;;;;;;15.25;6.05;;;;;;;;;;5083162;28;20039;-74
2022/05/13 03:25:18;;;;;;;8.23;4.40;;;;;;;;;;5082449;28;20028;-75
2022/05/13 03:27:44;;;;;;;5.75;3.83;;;;;;;;;;5082968;28;20028;-75
2022/05/13 03:30:13;;;;;;;9.02;4.60;;;;;;;;;;5083775;28;20039;-74
2022/05/13 03:32:39;;;;;;;7.47;4.43;;;;;;;;;;5094820;28;20046;-74
2022/05/13 03:35:06;;;;;;;8.82;4.05;;;;;;;;;;5103759;28;20028;-75
2022/05/13 03:37:33;;;;;;;10.23;4.78;;;;;;;;;;5102507;28;20099;-76
2022/05/13 03:39:59;;;;;;;8.32;4.20;;;;;;;;;;5103463;28;20028;-75
2022/05/13 03:42:25;;;;;;;8.02;4.25;;;;;;;;;;5101732;28;20028;-75
2022/05/13 03:44:52;;;;;;;8.98;4.22;;;;;;;;;;5102301;28;20096;-75
2022/05/13 03:47:18;;;;;;;10.18;4.55;;;;;;;;;;5103227;28;20383;-75
2022/05/13 03:49:44;;;;;;;10.18;4.10;;;;;;;;;;5092569;28;20031;-75
2022/05/13 03:52:11;;;;;;;10.25;4.55;;;;;;;;;;5082440;28;20047;-75
2022/05/13 03:54:38;;;;;;;7.63;4.30;;;;;;;;;;5079871;28;20525;-76
2022/05/13 03:57:07;;;;;;;8.70;4.20;;;;;;;;;;5096868;28;20077;-75
2022/05/13 03:59:34;;;;;;;6.05;4.10;;;;;;;;;;5102593;28;20039;-76
2022/05/13 04:02:01;;;;;;;6.97;4.38;;;;;;;;;;5102705;28;20031;-75
2022/05/13 04:04:29;;;;;;;8.10;4.50;;;;;;;;;;5102831;28;20031;-75
2022/05/13 04:09:41;;;;;;;9.88;5.25;;;;;;;;;;5081359;28;20043;-75
2022/05/13 04:17:37;;;;;;;9.18;4.53;;;;;;;;;;5082083;28;20513;-75
2022/05/13 04:20:04;;;;;;;8.18;4.63;;;;;;;;;;5082131;28;20059;-75
2022/05/13 04:22:31;;;;;;;8.15;4.05;;;;;;;;;;5079859;28;20404;-75
2022/05/13 04:24:58;;;;;;;6.35;4.20;;;;;;;;;;5082298;28;20043;-75
2022/05/13 04:27:24;;;;;;;10.25;4.63;;;;;;;;;;5092360;28;20096;-75
2022/05/13 04:29:52;;;;;;;9.05;5.03;;;;;;;;;;5102745;28;20034;-75
2022/05/13 04:32:18;;;;;;;9.68;5.00;;;;;;;;;;5100385;28;20103;-75
2022/05/13 04:34:44;;;;;;;7.95;4.97;;;;;;;;;;5102695;28;20115;-75
2022/05/13 04:37:10;;;;;;;9.60;4.80;;;;;;;;;;5101984;28;20486;-75
2022/05/13 04:39:36;;;;;;;9.32;5.13;;;;;;;;;;5102543;28;20043;-75
2022/05/13 04:44:47;;;;;;;12.25;5.72;;;;;;;;;;5102315;28;20043;-75
2022/05/13 04:50:19;;;;;;;8.88;5.80;;;;;;;;;;5044276;28;20036;-75
2022/05/13 04:52:46;;;;;;;15.07;5.70;;;;;;;;;;5058703;28;20075;-74
2022/05/13 04:55:12;;;;;;;10.35;5.70;;;;;;;;;;5079114;28;20051;-75
2022/05/13 04:57:38;;;;;;;14.30;6.07;;;;;;;;;;5100311;28;20481;-75
2022/05/13 05:00:07;;;;;;;11.23;6.10;;;;;;;;;;5100639;28;20119;-75
2022/05/13 05:02:33;;;;;;;7.97;6.68;;;;;;;;;;5102034;28;20024;-75
2022/05/13 05:05:00;;;;;;;8.45;5.90;;;;;;;;;;5101880;28;20110;-75
2022/05/13 05:07:26;;;;;;;10.18;6.15;;;;;;;;;;5085460;28;20039;-75
2022/05/13 05:09:52;;;;;;;11.15;5.55;;;;;;;;;;5080092;28;20036;-75
2022/05/13 05:12:18;;;;;;;12.38;6.05;;;;;;;;;;5080764;28;20709;-75
2022/05/13 05:14:44;;;;;;;12.45;7.63;;;;;;;;;;5079908;28;20086;-75
2022/05/13 05:17:11;;;;;;;10.07;7.20;;;;;;;;;;5084169;27;20495;-75
2022/05/13 05:19:38;;;;;;;13.00;7.90;;;;;;;;;;5088250;28;20075;-75
2022/05/13 05:22:05;;;;;;;15.23;8.55;;;;;;;;;;5080836;28;20020;-76
2022/05/13 05:24:32;;;;;;;15.20;9.45;;;;;;;;;;5080255;28;20618;-75
2022/05/13 05:26:58;;;;;;;15.68;9.00;;;;;;;;;;5101153;28;20038;-75
2022/05/13 05:29:24;;;;;;;12.55;8.40;;;;;;;;;;5087385;28;20612;-75
2022/05/13 05:31:50;;;;;;;10.32;8.50;;;;;;;;;;5086503;28;20040;-75
2022/05/13 05:34:18;;;;;;;14.32;8.25;;;;;;;;;;5084300;28;20024;-75
2022/05/13 05:36:44;;;;;;;12.00;8.40;;;;;;;;;;5086033;28;20483;-75
2022/05/13 05:39:10;;;;;;;13.55;8.48;;;;;;;;;;5104074;28;20031;-74
2022/05/13 05:41:37;;;;;;;10.25;8.13;;;;;;;;;;5103170;28;20077;-74
2022/05/13 05:44:03;;;;;;;11.80;8.43;;;;;;;;;;5102075;28;20124;-74
2022/05/13 05:46:30;;;;;;;12.57;8.88;;;;;;;;;;5094066;28;20035;-75
2022/05/13 05:48:56;;;;;;;10.35;8.13;;;;;;;;;;5082770;28;20020;-75
2022/05/13 05:51:22;;;;;;;10.30;7.72;;;;;;;;;;5082284;28;20052;-75
2022/05/13 05:59:18;;;;;;;11.20;7.93;;;;;;;;;;5081268;28;20039;-75
2022/05/13 06:01:44;;;;;;;12.20;8.05;;;;;;;;;;5081213;28;20059;-75
2022/05/13 06:04:10;;;;;;;12.15;7.20;;;;;;;;;;5080172;28;20025;-74
2022/05/13 06:06:36;;;;;;;12.05;7.38;;;;;;;;;;5081559;28;20431;-75
2022/05/13 06:09:02;;;;;;;11.55;7.75;;;;;;;;;;5082520;28;20020;-74
2022/05/13 06:11:28;;;;;;;12.75;8.68;;;;;;;;;;5082712;28;20024;-75
2022/05/13 06:13:55;;;;;;;11.48;7.90;;;;;;;;;;5080820;28;20035;-75
2022/05/13 06:16:22;;;;;;;14.85;9.70;;;;;;;;;;5082279;28;20024;-75
2022/05/13 06:18:49;;;;;;;16.17;9.50;;;;;;;;;;5082233;28;20516;-75
2022/05/13 06:21:15;;;;;;;14.70;10.38;;;;;;;;;;5090012;28;20027;-75
2022/05/13 06:23:41;;;;;;;17.45;12.50;;;;;;;;;;5092097;28;20035;-74
2022/05/13 06:26:07;;;;;;;21.35;13.70;;;;;;;;;;5089366;28;20115;-75
2022/05/13 06:28:34;;;;;;;17.55;14.50;;;;;;;;;;5091993;28;20417;-75
2022/05/13 06:31:00;;;;;;;19.10;13.55;;;;;;;;;;5091343;28;20016;-75
2022/05/13 06:33:27;;;;;;;20.67;14.43;;;;;;;;;;5094691;28;20054;-74
2022/05/13 06:35:53;;;;;;;21.85;14.82;;;;;;;;;;5088284;28;20020;-74
2022/05/13 06:38:20;;;;;;;17.92;13.05;;;;;;;;;;5091376;28;20031;-74
2022/05/13 06:40:50;;;;;;;26.48;15.02;;;;;;;;;;5092212;28;20024;-74
2022/05/13 06:43:17;;;;;;;20.83;12.63;;;;;;;;;;5093705;28;20023;-74
2022/05/13 06:45:43;;;;;;;25.05;15.45;;;;;;;;;;5091928;28;20019;-74
2022/05/13 06:48:09;;;;;;;14.43;11.27;;;;;;;;;;5091776;28;20130;-74
2022/05/13 06:50:36;;;;;;;23.27;13.50;;;;;;;;;;5092268;28;20044;-74
2022/05/13 06:53:02;;;;;;;22.60;14.73;;;;;;;;;;5092722;28;20131;-74
2022/05/13 06:55:29;;;;;;;22.70;14.35;;;;;;;;;;5089821;28;20024;-74
2022/05/13 06:57:55;;;;;;;18.83;14.07;;;;;;;;;;5090040;28;20028;-74
2022/05/13 07:00:22;;;;;;;27.23;16.70;;;;;;;;;;5095723;28;20218;-74
2022/05/13 07:02:48;;;;;;;19.77;14.00;;;;;;;;;;5086762;28;20024;-74
2022/05/13 07:05:15;;;;;;;23.58;13.43;;;;;;;;;;5098530;28;20088;-74
2022/05/13 07:07:42;;;;;;;21.08;15.65;;;;;;;;;;5099244;28;20029;-74
2022/05/13 07:10:08;;;;;;;20.85;14.43;;;;;;;;;;5086248;28;20024;-74
2022/05/13 07:12:36;;;;;;;23.73;12.85;;;;;;;;;;5092264;28;20047;-74
2022/05/13 07:15:03;;;;;;;19.20;13.25;;;;;;;;;;5089488;28;20035;-74
2022/05/13 07:17:30;;;;;;;14.82;10.90;;;;;;;;;;5092520;28;20031;-74
2022/05/13 07:19:56;;;;;;;16.05;10.95;;;;;;;;;;5090201;28;20112;-74
2022/05/13 07:22:22;;;;;;;14.73;9.10;;;;;;;;;;5088500;28;20035;-74
2022/05/13 07:24:48;;;;;;;12.88;9.15;;;;;;;;;;5084757;28;20526;-74
2022/05/13 07:27:15;;;;;;;14.85;9.88;;;;;;;;;;5087648;28;20468;-74
2022/05/13 07:29:41;;;;;;;17.75;11.70;;;;;;;;;;5091870;28;20468;-74
2022/05/13 07:32:07;;;;;;;19.13;10.70;;;;;;;;;;5091684;28;20035;-74
2022/05/13 07:34:34;;;;;;;13.95;8.55;;;;;;;;;;5091189;28;20024;-76
2022/05/13 07:37:00;;;;;;;14.73;8.10;;;;;;;;;;5087256;28;20055;-77
2022/05/13 07:42:11;;;;;;;14.07;8.68;;;;;;;;;;5094850;28;20494;-78
2022/05/13 07:44:37;;;;;;;14.07;8.68;;;;;;;;;;5093902;28;20040;-74
2022/05/13 07:47:04;;;;;;;9.85;6.93;;;;;;;;;;5093631;28;20574;-74
2022/05/13 07:49:30;;;;;;;13.38;7.95;;;;;;;;;;5094561;28;20042;-74
2022/05/13 07:51:57;;;;;;;20.00;9.10;;;;;;;;;;5094875;28;20082;-73
2022/05/13 07:54:23;;;;;;;11.32;6.95;;;;;;;;;;5092483;28;20116;-73
2022/05/13 07:56:49;;;;;;;10.43;6.57;;;;;;;;;;5087975;28;20597;-73
2022/05/13 07:59:15;;;;;;;9.73;6.03;;;;;;;;;;5088859;27;20040;-73
2022/05/13 08:01:41;;;;;;;9.35;5.68;;;;;;;;;;5095330;28;20463;-73
2022/05/13 08:04:07;;;;;;;9.02;5.43;;;;;;;;;;5091612;28;20039;-73
2022/05/13 08:06:33;;;;;;;8.32;5.38;;;;;;;;;;5087206;28;20194;-76
2022/05/13 08:08:59;;;;;;;9.02;5.60;;;;;;;;;;5104658;28;20016;-77
2022/05/13 08:11:29;;;;;;;12.85;5.32;;;;;;;;;;5104304;28;20016;-74
2022/05/13 08:13:56;;;;;;;9.90;5.45;;;;;;;;;;5103303;28;20031;-75
2022/05/13 08:16:25;;;;;;;10.43;6.28;;;;;;;;;;5107395;28;20057;-74
2022/05/13 08:18:52;;;;;;;10.30;5.78;;;;;;;;;;5106412;27;20071;-74
2022/05/13 08:21:18;;;;;;;10.00;5.40;;;;;;;;;;5094386;27;20027;-74
2022/05/13 08:23:44;;;;;;;8.73;4.18;;;;;;;;;;5095361;28;20027;-74
2022/05/13 08:26:11;;;;;;;10.02;5.80;;;;;;;;;;5097377;28;20024;-74
2022/05/13 08:28:38;;;;;;;8.35;6.03;;;;;;;;;;5087684;28;20038;-75
2022/05/13 08:31:04;;;;;;;6.32;4.22;;;;;;;;;;5087585;28;20053;-75
2022/05/13 08:33:30;;;;;;;8.02;5.30;;;;;;;;;;5098293;28;20031;-74
2022/05/13 08:35:58;;;;;;;9.65;5.43;;;;;;;;;;5090751;28;20022;-75
2022/05/13 08:38:25;;;;;;;7.85;5.57;;;;;;;;;;5085388;28;20099;-74
2022/05/13 08:40:52;;;;;;;10.70;5.05;;;;;;;;;;5102183;28;20027;-73
2022/05/13 08:43:23;;;;;;;11.00;5.03;;;;;;;;;;5107518;28;20035;-74
2022/05/13 08:46:09;;;;;;;9.93;4.80;;;;;;;;;;5101035;27;20030;-74
2022/05/13 08:48:41;;;;;;;8.27;4.72;;;;;;;;;;5085183;28;20085;-73
2022/05/13 08:51:15;;;;;;;6.10;4.57;;;;;;;;;;5087370;28;20430;-74
2022/05/13 08:53:57;;;;;;;8.15;4.85;;;;;;;;;;5106476;28;20038;-74
2022/05/13 08:56:26;;;;;;;9.82;5.30;;;;;;;;;;5107048;28;20386;-74
2022/05/13 08:59:16;;;;;;;8.57;4.97;;;;;;;;;;5105785;28;20434;-75
2022/05/13 09:01:56;;;;;;;12.45;6.53;;;;;;;;;;5100904;28;20023;-74
2022/05/13 09:04:22;;;;;;;11.68;7.35;;;;;;;;;;5096197;28;20031;-76
2022/05/13 09:06:57;;;;;;;12.02;6.85;;;;;;;;;;5104150;28;20020;-78
2022/05/13 09:09:23;;;;;;;10.40;5.20;;;;;;;;;;5081090;28;20028;-75
2022/05/13 09:11:58;;;;;;;10.52;5.07;;;;;;;;;;5077463;28;20040;-77
2022/05/13 09:14:39;;;;;;;10.90;5.50;;;;;;;;;;5099285;27;20031;-74
2022/05/13 09:17:05;;;;;;;8.63;5.45;;;;;;;;;;5100750;28;20508;-73
2022/05/13 09:19:35;;;;;;;12.95;5.45;;;;;;;;;;5096559;28;20051;-74
2022/05/13 09:22:03;;;;;;;11.75;6.45;;;;;;;;;;5080409;28;20035;-73
2022/05/13 09:24:29;;;;;;;12.68;6.28;;;;;;;;;;5079209;28;20032;-74
2022/05/13 09:26:55;;;;;;;10.43;5.90;;;;;;;;;;5082625;28;20020;-74
2022/05/13 09:29:21;;;;;;;9.65;5.15;;;;;;;;;;5101516;28;20114;-74
2022/05/13 09:32:00;;;;;;;11.30;7.25;;;;;;;;;;5100662;28;20046;-74
2022/05/13 09:34:30;;;;;;;10.73;6.05;;;;;;;;;;5078985;28;20753;-74
2022/05/13 09:37:03;;;;;;;9.23;5.90;;;;;;;;;;5080635;28;20487;-74
2022/05/13 09:39:33;;;;;;;9.27;5.32;;;;;;;;;;5094302;28;20024;-74
2022/05/13 09:42:09;;;;;;;9.27;5.45;;;;;;;;;;5084629;28;20035;-74
2022/05/13 09:44:35;;;;;;;8.93;5.93;;;;;;;;;;5086054;28;20380;-74
2022/05/13 09:47:17;;;;;;;9.23;5.18;;;;;;;;;;5080412;28;20032;-74
2022/05/13 09:49:46;;;;;;;12.27;6.13;;;;;;;;;;5080414;28;20579;-76
2022/05/13 09:52:15;;;;;;;14.48;9.52;;;;;;;;;;5082599;28;20032;-74
2022/05/13 09:54:42;;;;;;;15.52;8.88;;;;;;;;;;5100832;27;20024;-74
2022/05/13 09:57:14;;;;;;;9.80;5.03;;;;;;;;;;5095280;28;20120;-74
2022/05/13 09:59:52;;;;;;;9.15;5.20;;;;;;;;;;5098227;27;20028;-74
2022/05/13 10:02:22;;;;;;;11.00;6.18;;;;;;;;;;5084300;28;20137;-74
2022/05/13 10:04:53;;;;;;;10.95;5.55;;;;;;;;;;5083559;28;20660;-74
2022/05/13 10:07:19;;;;;;;9.20;5.28;;;;;;;;;;5091280;28;20093;-74
2022/05/13 10:15:26;;;;;;;10.35;5.30;;;;;;;;;;5090774;28;20093;-74
2022/05/13 10:17:54;;;;;;;11.45;4.75;;;;;;;;;;5091355;28;20547;-74
2022/05/13 10:20:29;;;;;;;10.57;5.43;;;;;;;;;;5079124;28;20044;-74
2022/05/13 10:23:05;;;;;;;11.38;5.75;;;;;;;;;;5079512;28;20533;-74
2022/05/13 10:25:47;;;;;;;11.15;6.50;;;;;;;;;;5079604;28;20584;-74
2022/05/13 10:28:15;;;;;;;12.20;7.55;;;;;;;;;;5099335;28;20151;-74
2022/05/13 10:30:50;;;;;;;8.98;5.43;;;;;;;;;;5096305;28;20020;-74
2022/05/13 10:33:36;;;;;;;11.55;6.13;;;;;;;;;;5097665;28;20138;-74
2022/05/13 10:36:11;;;;;;;8.43;4.97;;;;;;;;;;5095958;28;20601;-74
2022/05/13 10:38:37;;;;;;;9.73;5.65;;;;;;;;;;5098357;28;20870;-74
2022/05/13 10:41:10;;;;;;;9.85;5.38;;;;;;;;;;5099829;28;20032;-74
2022/05/13 10:43:39;;;;;;;12.68;7.15;;;;;;;;;;5098991;28;20063;-74
2022/05/13 10:46:26;;;;;;;7.80;5.55;;;;;;;;;;5097425;28;20522;-74
2022/05/13 10:48:53;;;;;;;10.43;4.85;;;;;;;;;;5090844;28;20441;-74
2022/05/13 10:51:35;;;;;;;8.43;5.20;;;;;;;;;;5084460;28;20035;-73
2022/05/13 10:54:01;;;;;;;11.70;6.95;;;;;;;;;;5081224;28;20044;-74
2022/05/13 10:56:35;;;;;;;9.60;5.43;;;;;;;;;;5080746;28;20029;-74
2022/05/13 10:59:23;;;;;;;10.35;6.75;;;;;;;;;;5091025;28;20051;-74
2022/05/13 11:02:10;;;;;;;10.63;5.72;;;;;;;;;;5084015;28;20426;-74
2022/05/13 11:04:39;;;;;;;9.50;5.53;;;;;;;;;;5094810;28;20034;-74
2022/05/13 11:07:08;;;;;;;9.32;6.03;;;;;;;;;;5092575;28;20023;-74
2022/05/13 11:09:43;;;;;;;8.68;5.20;;;;;;;;;;5107609;28;20036;-75
2022/05/13 11:12:33;;;;;;;6.75;4.88;;;;;;;;;;5089120;28;20021;-74
2022/05/13 11:15:07;;;;;;;13.68;5.50;;;;;;;;;;5082532;28;20403;-74
2022/05/13 11:17:36;;;;;;;9.05;5.10;;;;;;;;;;5082915;28;20024;-74
2022/05/13 11:20:09;;;;;;;10.95;5.47;;;;;;;;;;5083053;28;20054;-74
2022/05/13 11:22:39;;;;;;;9.55;5.28;;;;;;;;;;5083285;28;20024;-74
2022/05/13 11:28:05;;;;;;;8.23;4.97;;;;;;;;;;5090446;28;20439;-73
2022/05/13 11:30:36;;;;;;;8.15;5.05;;;;;;;;;;5095131;28;20576;-74
2022/05/13 11:33:08;;;;;;;15.35;5.72;;;;;;;;;;5093582;27;20099;-74
2022/05/13 11:35:38;;;;;;;11.10;5.60;;;;;;;;;;5122719;27;20023;-74
2022/05/13 11:38:15;;;;;;;9.13;5.10;;;;;;;;;;5107986;27;20026;-74
2022/05/13 11:40:47;;;;;;;8.68;5.43;;;;;;;;;;5082721;28;20031;-75
2022/05/13 11:43:24;;;;;;;8.63;5.10;;;;;;;;;;5083347;28;20031;-75
2022/05/13 11:45:55;;;;;;;10.60;4.68;;;;;;;;;;5111111;27;20043;-74
2022/05/13 11:48:21;;;;;;;10.63;4.88;;;;;;;;;;5122424;27;20031;-74
2022/05/13 11:50:48;;;;;;;9.50;4.43;;;;;;;;;;5087543;28;20111;-75
2022/05/13 11:53:34;;;;;;;7.47;4.55;;;;;;;;;;5079953;28;20040;-74
2022/05/13 11:56:13;;;;;;;11.45;5.45;;;;;;;;;;5081609;28;20035;-74
2022/05/13 11:58:42;;;;;;;6.18;4.63;;;;;;;;;;5088233;27;20094;-73
2022/05/13 12:01:10;;;;;;;7.75;4.70;;;;;;;;;;5101978;28;20084;-74
2022/05/13 12:03:36;;;;;;;7.90;4.25;;;;;;;;;;5089768;28;20108;-74
2022/05/13 12:06:04;;;;;;;6.70;4.65;;;;;;;;;;5098335;28;20103;-74
2022/05/13 12:08:37;;;;;;;7.60;4.50;;;;;;;;;;5082794;28;20603;-74
2022/05/13 12:11:03;;;;;;;7.63;4.32;;;;;;;;;;5100045;27;20432;-74
2022/05/13 12:13:41;;;;;;;8.30;4.32;;;;;;;;;;5101638;27;20036;-74
2022/05/13 12:16:16;;;;;;;7.13;4.10;;;;;;;;;;5082539;28;20551;-74
2022/05/13 12:18:42;;;;;;;7.85;4.68;;;;;;;;;;5084661;28;20392;-75
2022/05/13 12:21:11;;;;;;;8.07;4.55;;;;;;;;;;5082846;28;20494;-74
2022/05/13 12:23:41;;;;;;;9.02;4.22;;;;;;;;;;5083732;28;20027;-74
2022/05/13 12:26:13;;;;;;;7.75;4.07;;;;;;;;;;5093308;27;20034;-75
2022/05/13 12:28:39;;;;;;;8.23;4.38;;;;;;;;;;5121824;27;20030;-74
2022/05/13 12:31:28;;;;;;;9.50;4.57;;;;;;;;;;5108151;27;20038;-74
2022/05/13 12:39:46;;;;;;;8.75;4.28;;;;;;;;;;5092004;28;20035;-74
2022/05/13 12:42:13;;;;;;;7.60;3.72;;;;;;;;;;5096912;28;20028;-73
2022/05/13 12:44:57;;;;;;;7.35;4.05;;;;;;;;;;5099455;28;20031;-73
2022/05/13 12:47:26;;;;;;;7.70;4.00;;;;;;;;;;5100033;27;20015;-73
2022/05/13 12:49:56;;;;;;;7.57;3.95;;;;;;;;;;5099901;28;20032;-74
2022/05/13 12:52:29;;;;;;;9.57;4.30;;;;;;;;;;5095989;28;20571;-74
2022/05/13 12:55:04;;;;;;;7.38;4.20;;;;;;;;;;5080863;28;20039;-73
2022/05/13 12:58:00;;;;;;;8.48;4.22;;;;;;;;;;5080704;28;20020;-73
2022/05/13 13:00:33;;;;;;;8.85;4.57;;;;;;;;;;5066032;28;20047;-74
2022/05/13 13:03:01;;;;;;;8.32;4.13;;;;;;;;;;5098567;28;20068;-73
2022/05/13 13:05:30;;;;;;;8.18;4.40;;;;;;;;;;5082580;28;20032;-74
2022/05/13 13:08:04;;;;;;;10.45;5.32;;;;;;;;;;5087192;28;20483;-74
2022/05/13 13:10:31;;;;;;;9.07;4.28;;;;;;;;;;5085247;28;20678;-74
2022/05/13 13:13:02;;;;;;;8.45;4.10;;;;;;;;;;5079593;28;20051;-74
2022/05/13 13:15:34;;;;;;;7.35;4.07;;;;;;;;;;5088708;27;20031;-73
2022/05/13 13:18:01;;;;;;;14.82;4.82;;;;;;;;;;5080965;28;20046;-74
2022/05/13 13:20:29;;;;;;;6.90;3.92;;;;;;;;;;5084622;28;20052;-74
2022/05/13 13:23:03;;;;;;;6.35;4.45;;;;;;;;;;5108491;27;20023;-73
2022/05/13 13:25:41;;;;;;;5.35;4.22;;;;;;;;;;5107415;27;20416;-74
2022/05/13 13:28:12;;;;;;;9.02;5.50;;;;;;;;;;5098223;28;20524;-74
2022/05/13 13:30:42;;;;;;;13.73;7.00;;;;;;;;;;5095930;28;20024;-74
2022/05/13 13:33:09;;;;;;;10.75;5.00;;;;;;;;;;5079799;28;20040;-74
2022/05/13 13:35:37;;;;;;;7.95;4.50;;;;;;;;;;5092754;28;20031;-74
2022/05/13 13:38:04;;;;;;;6.57;4.85;;;;;;;;;;5092862;27;20050;-73
2022/05/13 13:40:35;;;;;;;10.30;4.82;;;;;;;;;;5120528;27;20030;-73
2022/05/13 13:43:10;;;;;;;11.63;5.30;;;;;;;;;;5093980;27;20028;-73
2022/05/13 13:45:36;;;;;;;8.10;5.30;;;;;;;;;;5099902;28;20493;-73
2022/05/13 13:48:07;;;;;;;9.02;4.72;;;;;;;;;;5096833;28;20401;-73
2022/05/13 13:50:33;;;;;;;23.73;10.43;;;;;;;;;;5078626;28;20750;-73
2022/05/13 13:53:00;;;;;;;11.82;5.80;;;;;;;;;;5079955;28;20063;-73
2022/05/13 13:55:26;;;;;;;12.35;4.70;;;;;;;;;;5080222;28;20035;-73
2022/05/13 13:58:01;;;;;;;8.25;5.00;;;;;;;;;;5081639;28;20047;-73
2022/05/13 14:00:38;;;;;;;8.88;5.50;;;;;;;;;;5084744;28;20472;-74
2022/05/13 14:03:04;;;;;;;9.55;6.25;;;;;;;;;;5100627;28;20031;-73
2022/05/13 14:05:32;;;;;;;13.25;5.47;;;;;;;;;;5098441;28;20055;-73
2022/05/13 14:07:59;;;;;;;8.63;5.85;;;;;;;;;;5096800;28;20032;-73
2022/05/13 14:10:28;;;;;;;8.27;5.53;;;;;;;;;;5099787;28;20031;-73
2022/05/13 14:12:56;;;;;;;6.78;5.25;;;;;;;;;;5097678;28;20040;-73
2022/05/13 14:15:22;;;;;;;8.02;5.53;;;;;;;;;;5097985;28;20361;-73
2022/05/13 14:17:53;;;;;;;11.80;6.18;;;;;;;;;;5098727;28;20031;-73
2022/05/13 14:20:21;;;;;;;6.53;5.65;;;;;;;;;;5094931;28;20721;-73
2022/05/13 14:22:59;;;;;;;12.75;5.72;;;;;;;;;;5091084;27;20040;-73
2022/05/13 14:25:34;;;;;;;10.10;5.32;;;;;;;;;;5100529;27;20031;-73
2022/05/13 14:28:01;;;;;;;8.63;5.82;;;;;;;;;;5099523;28;20027;-73
2022/05/13 14:30:32;;;;;;;11.02;5.75;;;;;;;;;;5098261;28;20787;-74
2022/05/13 14:32:59;;;;;;;7.37;5.10;;;;;;;;;;5098458;28;20195;-73
2022/05/13 14:35:30;;;;;;;12.95;5.45;;;;;;;;;;5085715;28;20672;-73
2022/05/13 14:38:01;;;;;;;6.55;4.97;;;;;;;;;;5079519;28;20096;-73
2022/05/13 14:40:30;;;;;;;9.40;5.30;;;;;;;;;;5079771;28;20016;-73
2022/05/13 14:42:57;;;;;;;6.88;4.65;;;;;;;;;;5077475;28;20710;-73
2022/05/13 14:45:29;;;;;;;7.10;4.50;;;;;;;;;;5078825;28;20024;-73
2022/05/13 14:48:14;;;;;;;9.80;4.72;;;;;;;;;;5087975;28;20038;-73
2022/05/13 14:50:41;;;;;;;10.30;5.10;;;;;;;;;;5100468;28;20035;-73
2022/05/13 14:53:17;;;;;;;5.57;4.43;;;;;;;;;;5101963;28;20035;-74
2022/05/13 14:55:52;;;;;;;16.05;5.60;;;;;;;;;;5102319;28;20056;-73
2022/05/13 14:58:23;;;;;;;6.85;5.10;;;;;;;;;;5102415;28;20039;-73
2022/05/13 15:00:50;;;;;;;8.95;5.13;;;;;;;;;;5086047;28;20028;-73
2022/05/13 15:03:22;;;;;;;7.95;5.50;;;;;;;;;;5103305;28;20047;-73
2022/05/13 15:05:51;;;;;;;9.50;5.60;;;;;;;;;;5105227;27;20510;-73
2022/05/13 15:08:29;;;;;;;8.35;4.82;;;;;;;;;;5105640;28;20824;-73
2022/05/13 15:10:55;;;;;;;8.90;5.53;;;;;;;;;;5101337;28;20540;-73
2022/05/13 15:13:25;;;;;;;9.63;5.45;;;;;;;;;;5103559;28;20404;-73
2022/05/13 15:15:52;;;;;;;10.70;5.13;;;;;;;;;;5101756;28;20024;-73
2022/05/13 15:18:18;;;;;;;10.93;5.05;;;;;;;;;;5103048;28;20938;-73
2022/05/13 15:20:45;;;;;;;13.60;5.18;;;;;;;;;;5103268;28;20036;-73
2022/05/13 15:23:11;;;;;;;6.57;5.15;;;;;;;;;;5103215;28;20062;-73
2022/05/13 15:25:46;;;;;;;6.47;4.45;;;;;;;;;;5103508;28;20495;-73